createdAt,value
2023-04-14T00:01:40.857Z,4.03
2023-04-14T00:04:09.070Z,3.97
2023-04-14T00:06:37.388Z,3.86
2023-04-14T00:09:05.704Z,3.80
2023-04-14T00:11:35.216Z,3.82
2023-04-14T00:14:03.417Z,3.78
2023-04-14T00:16:31.741Z,3.78
2023-04-14T00:19:00.200Z,3.79
2023-04-14T00:21:28.560Z,3.75
2023-04-14T00:23:57.529Z,3.72
2023-04-14T00:26:25.736Z,3.72
2023-04-14T00:28:55.341Z,3.71
2023-04-14T00:31:23.430Z,3.68
2023-04-14T00:33:51.543Z,3.65
2023-04-14T00:36:21.433Z,3.56
2023-04-14T00:38:50.872Z,3.70
2023-04-14T00:41:24.681Z,3.66
2023-04-14T00:44:01.682Z,3.61
2023-04-14T00:46:34.899Z,3.54
2023-04-14T00:49:11.384Z,3.53
2023-04-14T00:51:42.371Z,3.48
2023-04-14T00:54:18.668Z,3.43
2023-04-14T00:56:50.638Z,3.44
2023-04-14T00:59:29.033Z,3.43
2023-04-14T01:02:00.874Z,3.38
2023-04-14T01:04:49.605Z,3.30
2023-04-14T01:07:30.344Z,3.42
2023-04-14T01:10:00.397Z,3.34
2023-04-14T01:12:38.442Z,3.24
2023-04-14T01:15:12.934Z,3.24
2023-04-14T01:17:47.061Z,3.26
2023-04-14T01:20:23.986Z,3.23
2023-04-14T01:22:54.769Z,3.25
2023-04-14T01:25:45.638Z,3.27
2023-04-14T01:28:21.273Z,3.18
2023-04-14T01:31:05.643Z,3.04
2023-04-14T01:33:40.978Z,3.00
2023-04-14T01:36:14.849Z,2.95
2023-04-14T01:38:50.457Z,2.93
2023-04-14T01:41:21.769Z,2.89
2023-04-14T01:43:56.984Z,2.81
2023-04-14T01:46:25.435Z,2.78
2023-04-14T01:48:55.908Z,2.83
2023-04-14T01:51:26.868Z,2.89
2023-04-14T01:53:56.395Z,2.94
2023-04-14T01:56:24.902Z,2.92
2023-04-14T01:58:55.549Z,2.91
2023-04-14T02:01:24.731Z,3.07
2023-04-14T02:03:53.198Z,3.07
2023-04-14T02:06:23.880Z,3.26
2023-04-14T02:08:52.203Z,3.37
2023-04-14T02:11:20.684Z,3.49
2023-04-14T02:13:50.026Z,3.60
2023-04-14T02:16:18.574Z,3.59
2023-04-14T02:18:47.528Z,3.60
2023-04-14T02:21:16.382Z,3.57
2023-04-14T02:23:46.104Z,3.49
2023-04-14T02:26:15.739Z,3.44
2023-04-14T02:28:48.007Z,3.46
2023-04-14T02:31:23.661Z,3.39
2023-04-14T02:33:54.320Z,3.30
2023-04-14T02:36:25.855Z,3.28
2023-04-14T02:38:56.918Z,3.23
2023-04-14T02:41:31.404Z,3.20
2023-04-14T02:44:02.470Z,3.28
2023-04-14T02:46:33.068Z,3.21
2023-04-14T02:49:02.403Z,3.13
2023-04-14T02:51:32.458Z,3.13
2023-04-14T02:54:02.141Z,3.11
2023-04-14T02:56:30.426Z,3.15
2023-04-14T02:58:59.087Z,3.26
2023-04-14T03:01:27.772Z,3.32
2023-04-14T03:03:57.462Z,3.36
2023-04-14T03:06:26.120Z,3.33
2023-04-14T03:08:55.787Z,3.29
2023-04-14T03:11:25.867Z,3.27
2023-04-14T03:13:55.764Z,3.32
2023-04-14T03:16:24.856Z,3.23
2023-04-14T03:18:54.343Z,3.13
2023-04-14T03:21:23.260Z,3.14
2023-04-14T03:23:52.746Z,3.17
2023-04-14T03:26:28.528Z,3.11
2023-04-14T03:28:59.320Z,3.10
2023-04-14T03:31:31.860Z,3.11
2023-04-14T03:34:01.261Z,3.17
2023-04-14T03:36:30.307Z,3.25
2023-04-14T03:39:01.663Z,3.32
2023-04-14T03:41:34.179Z,3.31
2023-04-14T03:44:05.011Z,3.35
2023-04-14T03:46:33.283Z,3.36
2023-04-14T03:49:06.594Z,3.43
2023-04-14T03:51:36.139Z,3.44
2023-04-14T03:54:06.152Z,3.39
2023-04-14T03:56:38.108Z,3.41
2023-04-14T03:59:10.062Z,3.47
2023-04-14T04:01:39.041Z,3.53
2023-04-14T04:04:08.214Z,3.52
2023-04-14T04:06:37.122Z,3.56
2023-04-14T04:09:06.104Z,3.62
2023-04-14T04:11:36.528Z,3.65
2023-04-14T04:14:05.402Z,3.73
2023-04-14T04:16:36.214Z,3.81
2023-04-14T04:19:07.148Z,3.88
2023-04-14T04:21:37.373Z,3.93
2023-04-14T04:24:07.158Z,4.02
2023-04-14T04:26:36.743Z,3.96
2023-04-14T04:29:05.732Z,3.91
2023-04-14T04:31:34.381Z,3.83
2023-04-14T04:34:03.002Z,3.85
2023-04-14T04:36:32.416Z,3.79
2023-04-14T04:39:00.894Z,3.75
2023-04-14T04:41:29.829Z,3.67
2023-04-14T04:43:59.953Z,3.68
2023-04-14T04:46:43.379Z,3.64
2023-04-14T04:49:11.752Z,3.66
2023-04-14T04:51:40.086Z,3.72
2023-04-14T04:54:08.294Z,3.84
2023-04-14T04:56:36.651Z,3.94
2023-04-14T04:59:07.496Z,3.92
2023-04-14T05:01:36.044Z,3.99
2023-04-14T05:04:04.543Z,4.01
2023-04-14T05:06:35.417Z,4.03
2023-04-14T05:09:04.356Z,4.04
2023-04-14T05:11:32.749Z,4.06
2023-04-14T05:14:35.675Z,4.07
2023-04-14T05:17:18.069Z,4.09
2023-04-14T05:19:46.554Z,4.15
2023-04-14T05:22:14.777Z,4.17
2023-04-14T05:24:43.376Z,4.17
2023-04-14T05:27:14.717Z,4.21
2023-04-14T05:29:44.713Z,4.28
2023-04-14T05:32:14.519Z,4.48
2023-04-14T05:34:42.888Z,4.61
2023-04-14T05:37:11.099Z,4.89
2023-04-14T05:39:39.352Z,5.13
2023-04-14T05:42:07.790Z,5.37
2023-04-14T05:44:36.565Z,5.60
2023-04-14T05:47:06.195Z,5.80
2023-04-14T05:49:34.902Z,5.87
2023-04-14T05:52:03.228Z,5.95
2023-04-14T05:54:31.606Z,5.96
2023-04-14T05:57:00.807Z,5.99
2023-04-14T05:59:29.173Z,6.06
2023-04-14T06:01:57.556Z,6.15
2023-04-14T06:04:27.253Z,6.26
2023-04-14T06:06:55.981Z,6.35
2023-04-14T06:09:24.156Z,6.47
2023-04-14T06:11:53.326Z,6.62
2023-04-14T06:14:21.638Z,6.75
2023-04-14T06:16:51.031Z,6.86
2023-04-14T06:19:19.563Z,6.95
2023-04-14T06:21:49.301Z,6.91
2023-04-14T06:24:17.526Z,6.93
2023-04-14T06:26:46.294Z,6.93
2023-04-14T06:29:21.237Z,6.99
2023-04-14T06:31:51.781Z,7.09
2023-04-14T06:34:20.659Z,7.17
2023-04-14T06:36:53.690Z,7.16
2023-04-14T06:39:33.133Z,7.34
2023-04-14T06:42:01.441Z,7.39
2023-04-14T06:44:29.657Z,7.49
2023-04-14T06:46:57.832Z,7.62
2023-04-14T06:49:26.140Z,7.66
2023-04-14T06:51:56.053Z,7.84
2023-04-14T06:54:24.344Z,7.81
2023-04-14T06:56:52.621Z,7.94
2023-04-14T06:59:23.014Z,8.15
2023-04-14T07:01:51.530Z,8.29
2023-04-14T07:04:20.007Z,8.46
2023-04-14T07:06:48.172Z,8.62
2023-04-14T07:09:18.017Z,8.89
2023-04-14T07:11:47.068Z,9.21
2023-04-14T07:14:15.369Z,9.39
2023-04-14T07:16:43.628Z,9.50
2023-04-14T07:19:11.816Z,9.55
2023-04-14T07:21:40.065Z,9.74
2023-04-14T07:24:09.401Z,9.88
2023-04-14T07:26:38.910Z,10.31
2023-04-14T07:29:07.262Z,11.27
2023-04-14T07:31:37.864Z,12.73
2023-04-14T07:34:06.227Z,14.65
2023-04-14T07:36:34.533Z,15.94
2023-04-14T07:39:02.760Z,16.80
2023-04-14T07:41:31.519Z,17.68
2023-04-14T07:44:01.166Z,19.01
2023-04-14T07:46:29.589Z,19.97
2023-04-14T07:48:57.798Z,21.24
2023-04-14T07:51:26.015Z,22.86
2023-04-14T07:53:55.986Z,23.56
2023-04-14T07:56:24.389Z,22.95
2023-04-14T07:58:52.603Z,22.06
2023-04-14T08:01:22.087Z,22.50
2023-04-14T08:03:50.838Z,21.99
2023-04-14T08:06:20.427Z,20.79
2023-04-14T08:08:48.566Z,21.49
2023-04-14T08:11:17.024Z,21.99
2023-04-14T08:13:46.338Z,24.06
2023-04-14T08:16:15.540Z,24.99
2023-04-14T08:18:45.704Z,25.74
2023-04-14T08:21:14.070Z,25.86
2023-04-14T08:23:42.749Z,24.94
2023-04-14T08:26:11.695Z,25.26
2023-04-14T08:28:39.944Z,23.50
2023-04-14T08:31:08.869Z,24.36
2023-04-14T08:33:37.593Z,23.84
2023-04-14T08:36:10.408Z,23.10
2023-04-14T08:38:39.207Z,22.73
2023-04-14T08:41:09.582Z,22.52
2023-04-14T08:43:37.807Z,22.58
2023-04-14T08:46:07.342Z,24.04
2023-04-14T08:48:36.671Z,25.72
2023-04-14T08:51:08.572Z,24.63
2023-04-14T08:53:42.769Z,24.76
2023-04-14T08:56:12.608Z,24.78
2023-04-14T08:58:41.198Z,25.23
2023-04-14T09:01:15.433Z,27.97
2023-04-14T09:03:44.502Z,27.54
2023-04-14T09:06:13.408Z,24.97
2023-04-14T09:08:44.360Z,24.25
2023-04-14T09:11:13.056Z,24.63
2023-04-14T09:13:41.746Z,25.48
2023-04-14T09:16:11.328Z,24.89
2023-04-14T09:18:40.864Z,22.11
2023-04-14T09:21:29.959Z,22.13
2023-04-14T09:24:00.581Z,21.94
2023-04-14T09:26:30.818Z,24.25
2023-04-14T09:28:59.966Z,25.28
2023-04-14T09:31:29.750Z,23.39
2023-04-14T09:34:01.175Z,24.32
2023-04-14T09:36:31.185Z,26.39
2023-04-14T09:39:01.417Z,26.75
2023-04-14T09:41:29.626Z,26.08
2023-04-14T09:44:08.096Z,25.32
2023-04-14T09:46:36.588Z,27.76
2023-04-14T09:49:07.230Z,27.97
2023-04-14T09:51:36.134Z,26.33
2023-04-14T09:54:06.546Z,29.25
2023-04-14T09:56:35.248Z,27.56
2023-04-14T09:59:04.318Z,28.58
2023-04-14T10:01:34.259Z,26.00
2023-04-14T10:04:03.699Z,25.12
2023-04-14T10:06:34.000Z,27.76
2023-04-14T10:09:02.728Z,24.08
2023-04-14T10:11:33.532Z,20.38
2023-04-14T10:14:02.882Z,21.69
2023-04-14T10:16:31.771Z,23.59
2023-04-14T10:19:00.758Z,22.03
2023-04-14T10:21:29.270Z,25.56
2023-04-14T10:23:58.224Z,26.59
2023-04-14T10:26:27.645Z,25.39
2023-04-14T10:28:57.845Z,25.31
2023-04-14T10:31:27.717Z,25.99
2023-04-14T10:33:56.475Z,24.84
2023-04-14T10:36:25.577Z,22.38
2023-04-14T10:38:59.480Z,23.01
2023-04-14T10:41:28.385Z,24.84
2023-04-14T10:43:57.976Z,22.75
2023-04-14T10:46:26.235Z,23.51
2023-04-14T10:48:55.272Z,25.28
2023-04-14T10:51:35.652Z,22.62
2023-04-14T10:54:04.178Z,20.02
2023-04-14T10:56:32.310Z,20.03
2023-04-14T10:59:03.533Z,18.88
2023-04-14T11:01:32.579Z,18.37
2023-04-14T11:04:12.461Z,20.45
2023-04-14T11:06:51.303Z,20.00
2023-04-14T11:09:24.044Z,18.44
2023-04-14T11:11:52.652Z,17.98
2023-04-14T11:14:27.729Z,20.38
2023-04-14T11:17:03.767Z,23.43
2023-04-14T11:19:33.703Z,23.27
2023-04-14T11:22:02.099Z,19.95
2023-04-14T11:24:30.577Z,17.55
2023-04-14T11:27:00.042Z,17.87
2023-04-14T11:29:29.585Z,15.95
2023-04-14T11:32:02.273Z,15.75
2023-04-14T11:34:30.595Z,15.50
2023-04-14T11:36:58.748Z,15.80
2023-04-14T11:39:28.939Z,16.58
2023-04-14T11:42:00.003Z,20.13
2023-04-14T11:44:34.788Z,22.03
2023-04-14T11:47:04.536Z,20.92
2023-04-14T11:49:35.831Z,19.17
2023-04-14T11:52:07.728Z,21.37
2023-04-14T11:54:37.112Z,22.24
2023-04-14T11:57:09.845Z,21.30
2023-04-14T11:59:46.651Z,24.28
2023-04-14T12:02:19.156Z,24.73
2023-04-14T12:04:50.627Z,23.99
2023-04-14T12:07:20.181Z,20.79
2023-04-14T12:09:50.136Z,19.34
2023-04-14T12:12:18.999Z,18.30
2023-04-14T12:14:49.259Z,18.26
2023-04-14T12:17:18.719Z,17.76
2023-04-14T12:19:47.295Z,17.25
2023-04-14T12:22:16.230Z,16.62
2023-04-14T12:24:44.410Z,16.25
2023-04-14T12:27:27.561Z,18.40
2023-04-14T12:29:57.281Z,21.12
2023-04-14T12:32:25.592Z,20.42
2023-04-14T12:34:55.327Z,19.68
2023-04-14T12:37:24.869Z,17.38
2023-04-14T12:39:54.218Z,16.60
2023-04-14T12:42:22.510Z,16.06
2023-04-14T12:44:59.286Z,16.17
2023-04-14T12:47:28.476Z,16.98
2023-04-14T12:49:57.077Z,18.11
2023-04-14T12:52:33.729Z,20.04
2023-04-14T12:55:02.992Z,20.15
2023-04-14T12:57:31.426Z,21.24
2023-04-14T13:00:02.102Z,23.72
2023-04-14T13:02:30.857Z,24.64
2023-04-14T13:04:59.173Z,22.84
2023-04-14T13:07:27.554Z,24.12
2023-04-14T13:09:55.787Z,26.24
2023-04-14T13:12:23.972Z,27.84
2023-04-14T13:14:53.609Z,25.72
2023-04-14T13:17:23.310Z,23.07
2023-04-14T13:19:52.830Z,20.21
2023-04-14T13:22:20.937Z,19.71
2023-04-14T13:24:49.882Z,18.51
2023-04-14T13:27:18.292Z,18.72
2023-04-14T13:29:46.516Z,18.96
2023-04-14T13:32:14.968Z,18.64
2023-04-14T13:34:44.929Z,18.93
2023-04-14T13:37:13.132Z,19.57
2023-04-14T13:39:41.322Z,19.71
2023-04-14T13:42:09.907Z,19.64
2023-04-14T13:44:38.168Z,18.16
2023-04-14T13:47:06.439Z,17.53
2023-04-14T13:49:34.754Z,16.81
2023-04-14T13:52:04.308Z,16.20
2023-04-14T13:54:32.439Z,16.18
2023-04-14T13:57:00.626Z,16.26
2023-04-14T13:59:28.875Z,16.42
2023-04-14T14:01:57.134Z,16.83
2023-04-14T14:04:25.522Z,18.94
2023-04-14T14:06:54.150Z,21.00
2023-04-14T14:09:24.057Z,21.75
2023-04-14T14:11:52.196Z,21.16
2023-04-14T14:14:20.321Z,20.91
2023-04-14T14:16:49.669Z,21.16
2023-04-14T14:19:18.143Z,21.52
2023-04-14T14:21:46.350Z,21.44
2023-04-14T14:24:14.879Z,22.46
2023-04-14T14:26:44.414Z,22.02
2023-04-14T14:29:12.854Z,22.68
2023-04-14T14:31:41.091Z,22.67
2023-04-14T14:34:09.974Z,21.89
2023-04-14T14:36:38.110Z,20.62
2023-04-14T14:39:06.225Z,18.76
2023-04-14T14:41:34.507Z,17.93
2023-04-14T14:44:04.250Z,17.03
2023-04-14T14:46:33.352Z,17.27
2023-04-14T14:49:01.626Z,16.61
2023-04-14T14:51:29.827Z,16.73
2023-04-14T14:54:08.908Z,16.64
2023-04-14T14:56:38.427Z,16.71
2023-04-14T14:59:08.614Z,17.79
2023-04-14T15:01:37.113Z,17.82
2023-04-14T15:04:06.334Z,18.38
2023-04-14T15:06:35.940Z,18.33
2023-04-14T15:09:05.479Z,17.86
2023-04-14T15:11:33.635Z,17.18
2023-04-14T15:14:02.545Z,16.48
2023-04-14T15:16:32.648Z,15.98
2023-04-14T15:19:00.799Z,15.91
2023-04-14T15:21:29.138Z,15.92
2023-04-14T15:23:57.205Z,15.52
2023-04-14T15:26:25.678Z,15.53
2023-04-14T15:28:54.245Z,15.41
2023-04-14T15:31:22.397Z,15.37
2023-04-14T15:33:52.147Z,15.65
2023-04-14T15:36:20.514Z,15.87
2023-04-14T15:38:50.807Z,15.62
2023-04-14T15:41:19.401Z,15.34
2023-04-14T15:43:47.562Z,15.20
2023-04-14T15:46:15.907Z,15.02
2023-04-14T15:48:44.027Z,15.19
2023-04-14T15:51:13.490Z,14.96
2023-04-14T15:53:41.747Z,14.83
2023-04-14T15:56:09.819Z,14.90
2023-04-14T15:58:38.195Z,14.99
2023-04-14T16:01:09.509Z,14.99
2023-04-14T16:03:38.496Z,15.00
2023-04-14T16:06:08.078Z,14.73
2023-04-14T16:08:37.724Z,14.65
2023-04-14T16:11:05.921Z,14.56
2023-04-14T16:13:34.097Z,14.49
2023-04-14T16:16:02.330Z,14.41
2023-04-14T16:18:30.565Z,14.23
2023-04-14T16:20:58.670Z,14.16
2023-04-14T16:23:28.336Z,14.12
2023-04-14T16:25:57.972Z,14.23
2023-04-14T16:28:26.846Z,14.37
2023-04-14T16:30:55.350Z,14.46
2023-04-14T16:33:24.401Z,14.49
2023-04-14T16:35:52.936Z,14.42
2023-04-14T16:38:21.559Z,14.40
2023-04-14T16:40:54.715Z,14.46
2023-04-14T16:43:24.690Z,14.30
2023-04-14T16:45:52.936Z,14.49
2023-04-14T16:48:21.115Z,14.55
2023-04-14T16:50:49.408Z,14.63
2023-04-14T16:53:17.974Z,14.43
2023-04-14T16:55:46.203Z,14.21
2023-04-14T16:58:14.722Z,14.20
2023-04-14T17:00:44.537Z,14.12
2023-04-14T17:03:13.516Z,14.16
2023-04-14T17:05:42.996Z,14.11
2023-04-14T17:08:12.813Z,14.06
2023-04-14T17:10:42.884Z,13.98
2023-04-14T17:13:11.079Z,14.04
2023-04-14T17:15:39.617Z,13.92
2023-04-14T17:18:09.099Z,13.89
2023-04-14T17:20:37.225Z,13.86
2023-04-14T17:23:05.451Z,13.87
2023-04-14T17:25:35.276Z,13.83
2023-04-14T17:28:03.725Z,13.85
2023-04-14T17:30:32.291Z,13.75
2023-04-14T17:33:00.615Z,13.77
2023-04-14T17:35:30.414Z,13.87
2023-04-14T17:37:58.806Z,13.78
2023-04-14T17:40:28.491Z,13.69
2023-04-14T17:42:57.138Z,13.62
2023-04-14T17:45:25.712Z,13.44
2023-04-14T17:47:54.710Z,13.27
2023-04-14T17:50:22.996Z,12.99
2023-04-14T17:52:53.264Z,12.81
2023-04-14T17:55:21.496Z,12.61
2023-04-14T17:57:50.130Z,12.47
2023-04-14T18:00:18.876Z,12.36
2023-04-14T18:02:47.297Z,12.36
2023-04-14T18:05:15.524Z,12.21
2023-04-14T18:07:44.122Z,12.06
2023-04-14T18:10:13.593Z,11.97
2023-04-14T18:12:41.711Z,11.88
2023-04-14T18:15:15.176Z,11.72
2023-04-14T18:17:43.547Z,11.54
2023-04-14T18:20:11.951Z,11.35
2023-04-14T18:22:40.431Z,11.20
2023-04-14T18:25:09.560Z,11.12
2023-04-14T18:30:12.060Z,10.84
2023-04-14T18:32:40.320Z,10.77
2023-04-14T18:35:08.715Z,10.75
2023-04-14T18:37:38.167Z,10.69
2023-04-14T18:40:07.148Z,10.60
2023-04-14T18:42:36.013Z,10.51
2023-04-14T18:45:06.028Z,10.44
2023-04-14T18:47:34.335Z,10.51
2023-04-14T18:50:02.701Z,10.44
2023-04-14T18:52:31.152Z,10.38
2023-04-14T18:54:59.438Z,10.41
2023-04-14T18:57:28.938Z,10.42
2023-04-14T18:59:57.151Z,10.46
2023-04-14T19:02:26.772Z,10.43
2023-04-14T19:04:55.117Z,10.19
2023-04-14T19:07:23.417Z,10.06
2023-04-14T19:09:51.738Z,10.03
2023-04-14T19:12:28.155Z,9.91
2023-04-14T19:14:57.795Z,9.71
2023-04-14T19:17:28.406Z,9.57
2023-04-14T19:19:57.377Z,9.48
2023-04-14T19:22:25.525Z,9.35
2023-04-14T19:24:53.974Z,9.20
2023-04-14T19:27:22.317Z,9.14
2023-04-14T19:29:50.474Z,9.08
2023-04-14T19:32:18.891Z,9.07
2023-04-14T19:34:48.381Z,9.10
2023-04-14T19:37:16.615Z,9.03
2023-04-14T19:39:45.217Z,8.99
2023-04-14T19:42:13.523Z,8.96
2023-04-14T19:44:41.644Z,9.04
2023-04-14T19:47:10.019Z,9.11
2023-04-14T19:49:38.324Z,9.08
2023-04-14T19:52:08.548Z,9.05
2023-04-14T19:54:37.768Z,8.98
2023-04-14T19:57:06.535Z,8.93
2023-04-14T19:59:34.916Z,8.87
2023-04-14T20:02:05.477Z,8.81
2023-04-14T20:04:34.004Z,8.77
2023-04-14T20:07:03.312Z,8.80
2023-04-14T20:09:33.515Z,8.85
2023-04-14T20:12:02.037Z,8.86
2023-04-14T20:14:30.124Z,8.81
2023-04-14T20:16:59.355Z,8.74
2023-04-14T20:19:29.481Z,8.77
2023-04-14T20:21:57.905Z,8.73
2023-04-14T20:24:26.403Z,8.74
2023-04-14T20:26:56.260Z,8.74
2023-04-14T20:29:25.217Z,8.72
2023-04-14T20:31:53.860Z,8.79
2023-04-14T20:34:22.108Z,8.74
2023-04-14T20:36:52.946Z,8.82
2023-04-14T20:39:21.175Z,8.94
2023-04-14T20:41:49.385Z,8.92
2023-04-14T20:44:18.831Z,9.01
2023-04-14T20:46:49.205Z,9.02
2023-04-14T20:49:17.433Z,8.95
2023-04-14T20:51:46.819Z,8.93
2023-04-14T20:54:14.995Z,8.80
2023-04-14T20:56:43.272Z,8.78
2023-04-14T20:59:11.521Z,8.83
2023-04-14T21:01:42.531Z,8.83
2023-04-14T21:04:12.034Z,8.87
2023-04-14T21:06:40.320Z,8.88
2023-04-14T21:09:08.810Z,8.86
2023-04-14T21:11:38.349Z,8.78
2023-04-14T21:15:28.178Z,8.74
2023-04-14T21:16:58.031Z,8.74
2023-04-14T21:19:28.313Z,8.67
2023-04-14T21:21:56.475Z,8.66
2023-04-14T21:24:24.920Z,8.65
2023-04-14T21:26:53.196Z,8.58
2023-04-14T21:29:21.495Z,8.60
2023-04-14T21:31:49.722Z,8.51
2023-04-14T21:34:19.261Z,8.54
2023-04-14T21:36:48.206Z,8.49
2023-04-14T21:39:17.507Z,8.41
2023-04-14T21:41:45.633Z,8.39
2023-04-14T21:44:15.620Z,8.38
2023-04-14T21:46:43.711Z,8.38
2023-04-14T21:49:12.397Z,8.34
2023-04-14T21:51:41.983Z,8.29
2023-04-14T21:54:10.178Z,8.27
2023-04-14T21:56:38.541Z,8.26
2023-04-14T21:59:07.145Z,8.24
2023-04-14T22:01:36.254Z,8.15
2023-04-14T22:04:04.952Z,8.11
2023-04-14T22:06:33.717Z,8.12
2023-04-14T22:09:03.830Z,8.11
2023-04-14T22:11:32.186Z,8.11
2023-04-14T22:14:02.662Z,8.02
2023-04-14T22:16:31.069Z,7.98
2023-04-14T22:18:59.264Z,7.92
2023-04-14T22:21:27.868Z,7.92
2023-04-14T22:23:56.982Z,7.90
2023-04-14T22:26:26.998Z,7.87
2023-04-14T22:28:55.376Z,7.94
2023-04-14T22:31:24.754Z,7.95
2023-04-14T22:33:53.115Z,7.96
2023-04-14T22:36:21.775Z,7.98
2023-04-14T22:38:50.100Z,7.95
2023-04-14T22:41:18.812Z,7.97
2023-04-14T22:43:48.759Z,7.99
2023-04-14T22:46:17.426Z,8.07
2023-04-14T22:48:45.806Z,8.05
2023-04-14T22:51:14.156Z,7.96
2023-04-14T22:53:42.657Z,7.92
2023-04-14T22:56:11.388Z,7.84
2023-04-14T22:58:39.892Z,7.83
2023-04-14T23:01:21.247Z,7.72
2023-04-14T23:03:52.598Z,7.78
2023-04-14T23:06:21.692Z,7.74
2023-04-14T23:08:50.928Z,7.71
2023-04-14T23:11:20.989Z,7.61
2023-04-14T23:13:50.255Z,7.55
2023-04-14T23:16:20.507Z,7.51
2023-04-14T23:18:51.921Z,7.50
2023-04-14T23:21:20.495Z,7.46
2023-04-14T23:23:48.747Z,7.43
2023-04-14T23:26:17.266Z,7.41
2023-04-14T23:28:45.767Z,7.40
2023-04-14T23:31:14.314Z,7.33
2023-04-14T23:33:44.532Z,7.26
2023-04-14T23:36:13.363Z,7.25
2023-04-14T23:38:41.787Z,7.15
2023-04-14T23:41:10.053Z,7.14
2023-04-14T23:43:38.943Z,7.16
2023-04-14T23:46:07.084Z,7.07
2023-04-14T23:48:35.348Z,6.98
2023-04-14T23:51:20.418Z,6.97
2023-04-14T23:53:50.165Z,6.95
2023-04-14T23:56:18.450Z,7.01
2023-04-14T23:58:47.074Z,6.97
